Terminal Aerodrome Forecast
Issued by NWS

Current Version | Previous Version | Graphics & Text | Print | Product List | Glossary On
Versions: 1 2 3 4 5 6 7 8 9 10 11 12 13 14 15 16 17 18 19 20 21 22 23
000
FTUS41 KPBZ 302000 AAA
TAFHLG
TAF AMD
KHLG 302014Z 3020/0118 28006KT P6SM SCT015 BKN025
     FM010100 36005KT P6SM OVC020
     FM011500 12005KT P6SM BKN035=

USA.gov is the U.S. government's official web portal to all federal, state and local government web resources and services.